Terminal Aerodrome Forecast
Issued by NWS

Home | Current Version | Previous Version | Text Only | Print | Product List | Glossary On
Versions: 1 2 3 4 5 6 7 8 9 10 11 12 13 14 15 16 17 18 19 20 21 22 23
000
FTUS43 KIND 232320
TAFLAF
TAF
KLAF 232320Z 2400/2424 31004KT P6SM SCT040
     FM240400 00000KT P6SM SCT200
     FM241000 35004KT 5SM BR SCT040
     FM241300 01006KT P6SM BKN035
     FM241700 36007KT P6SM SCT050
      AMD LTD TO CLD VIS AND WIND 2401/2413=

USA.gov is the U.S. government's official web portal to all federal, state and local government web resources and services.